Terminal Aerodrome Forecast
Issued by NWS

Home | Current Version | Previous Version | Text Only | Print | Product List | Glossary On
Versions: 1 2 3 4 5 6 7 8 9 10 11 12 13 14 15 16 17 18 19 20 21 22 23 24 25 26 27 28 29 30 31 32 33 34 35 36 37 38 39 40 41 42 43 44 45 46 47 48
000
FTUS41 KBOX 202331
TAFACK
TAF
KACK 202331Z 2100/2124 15011KT 1/4SM FG VCSH VV002
     FM210500 21011G20KT 1/2SM -SHRA FG OVC002
     FM211300 28010G17KT 3/4SM -SHRA BR OVC003
     FM211700 33012G19KT 3SM BR VCSH OVC008=

USA.gov is the U.S. government's official web portal to all federal, state and local government web resources and services.